ADDS METAR Data INFO
IDs: Format: Raw Decoded Include TAF

Data at: 1843 UTC 17 Oct 2017

KCKV 171752Z AUTO 00000KT 10SM CLR 18/04 A3032 RMK AO2 SLP268 T01780044 10183 20033 58023
KCKV 171652Z AUTO 10SM CLR 17/04 A3036 RMK AO2 SLP280 T01720039
KCKV 171552Z AUTO 11008KT 10SM CLR 16/05 A3037 RMK AO2 SLP285 T01610050
KCKV 171452Z AUTO 11006KT 10SM CLR 13/07 A3039 RMK AO2 SLP292 T01330067 51012
KCKV 171352Z AUTO 00000KT 10SM CLR 09/07 A3039 RMK AO2 SLP292 T00940067
KCKV 171252Z AUTO 00000KT 10SM CLR 06/04 A3037 RMK AO2 SLP287 T00560044
KCKV 171152Z AUTO 00000KT 7SM CLR 04/02 A3036 RMK AO2 SLP281 T00390022 10061 20033 51013
KCKV 171137Z AUTO 00000KT 2SM BR CLR 03/02 A3035 RMK AO2 T00330022
KCKV 171052Z AUTO 00000KT 10SM CLR 04/03 A3034 RMK AO2 SLP276 T00440028
KCKV 170952Z AUTO 00000KT 10SM CLR 05/03 A3034 RMK AO2 SLP272 T00500033
KCKV 170852Z AUTO 00000KT 10SM CLR 04/03 A3032 RMK AO2 SLP267 T00440033 50002
KCKV 170752Z AUTO 00000KT 10SM CLR 06/04 A3032 RMK AO2 SLP268 T00560039
KCKV 170652Z AUTO 00000KT 10SM CLR 07/04 A3033 RMK AO2 SLP269 T00670044
KCKV 170552Z AUTO 00000KT 10SM CLR 06/05 A3031 RMK AO2 SLP265 T00610050 10128 20061 401830061 58004
KCKV 170452Z AUTO 00000KT 10SM CLR 07/05 A3032 RMK AO2 SLP266 T00670050
KCKV 170352Z AUTO 33003KT 10SM CLR 08/06 A3032 RMK AO2 SLP269 T00830056
KCKV 170252Z AUTO 32003KT 10SM CLR 10/06 A3032 RMK AO2 SLP269 T01000056 53008
KCKV 170152Z AUTO 35004KT 10SM CLR 09/05 A3031 RMK AO2 SLP266 T00940050
KCKV 170052Z AUTO 01003KT 10SM CLR 11/04 A3031 RMK AO2 SLP264 T01110044
KCKV 162352Z AUTO 02003KT 10SM CLR 13/03 A3030 RMK AO2 SLP262 T01280033 10183 20128 53004
KCKV 162252Z AUTO 02007KT 10SM CLR 15/04 A3029 RMK AO2 SLP258 T01500039
KCKV 162152Z AUTO 01011KT 10SM CLR 17/03 A3028 RMK AO2 SLP255 T01720033
KCKV 162052Z AUTO 01010KT 10SM CLR 18/03 A3029 RMK AO2 SLP255 T01780033 56018
KCKV 161952Z AUTO 03004KT 10SM CLR 18/04 A3029 RMK AO2 SLP256 T01780039
KCKV 161852Z AUTO VRB06KT 10SM CLR 17/04 A3031 RMK AO2 SLP263 T01670044
KCKV 161752Z AUTO 02009G17KT 10SM FEW042 16/05 A3034 RMK AO2 SLP273 T01610050 10167 20067 58006
KCKV 161652Z AUTO 04009KT 10SM FEW037 16/05 A3036 RMK AO2 SLP280 T01560050
KCKV 161552Z AUTO 02009KT 10SM CLR 14/06 A3036 RMK AO2 SLP282 T01440061
KCKV 161452Z AUTO 03013KT 10SM CLR 12/06 A3036 RMK AO2 SLP281 T01220061 51014
KCKV 161352Z AUTO 02013KT 10SM CLR 11/07 A3035 RMK AO2 SLP277 T01060067
KCKV 161252Z AUTO 35007KT 10SM CLR 08/06 A3033 RMK AO2 SLP273 T00830056
KCKV 161152Z AUTO 35007KT 10SM CLR 07/05 A3032 RMK AO2 SLP267 70033 T00720050 10089 20061 52015
KCKV 161052Z AUTO 34006KT 10SM CLR 07/05 A3030 RMK AO2 SLP260 T00670050
KCKV 160952Z AUTO 33007KT 10SM CLR 07/06 A3029 RMK AO2 SLP257 T00720056
KCKV 160852Z AUTO 33005KT 10SM CLR 07/05 A3027 RMK AO2 SLP251 T00720050 58001
KCKV 160752Z AUTO 35004KT 10SM CLR 08/06 A3027 RMK AO2 SLP251 T00780056
KCKV 160652Z AUTO 34006KT 10SM CLR 08/06 A3028 RMK AO2 SLP251 T00830061